Time,TemperatureF,DewpointF,PressureIn,WindDirection,WindDirectionDegrees,WindSpeedMPH,WindSpeedGustMPH,Humidity,HourlyPrecipIn,Conditions,Clouds,dailyrainin,SoftwareType,DateUTC
2013-02-08 00:00:00,42.2,36.8,30.00,North,3,0.0,0.0,81,0.00,-RA,,0.00,WeatherDisplay:10.37,2013-02-08 08:00:00,
2013-02-08 00:10:00,42.0,36.6,29.99,North,3,0.0,0.0,81,0.00,OVC,,0.00,WeatherDisplay:10.37,2013-02-08 08:10:00,
2013-02-08 00:20:00,41.7,36.6,29.99,North,3,0.0,0.0,82,0.00,OVC,,0.00,WeatherDisplay:10.37,2013-02-08 08:20:00,
2013-02-08 00:30:00,41.5,36.4,29.99,North,3,0.0,0.0,82,0.00,OVC,,0.00,WeatherDisplay:10.37,2013-02-08 08:30:00,
2013-02-08 00:40:00,41.3,36.2,29.98,North,3,0.0,0.0,82,0.00,OVC,,0.00,WeatherDisplay:10.37,2013-02-08 08:40:00,
2013-02-08 00:50:00,41.1,36.0,29.98,North,3,0.0,0.0,82,0.00,OVC,,0.00,WeatherDisplay:10.37,2013-02-08 08:50:00,
2013-02-08 00:55:00,41.0,35.9,29.98,North,3,0.0,0.0,82,0.00,OVC,,0.00,WeatherDisplay:10.37,2013-02-08 08:55:00,
2013-02-08 01:05:00,41.0,35.9,29.98,North,3,0.0,0.0,82,0.00,OVC,,0.00,WeatherDisplay:10.37,2013-02-08 09:05:00,
2013-02-08 01:10:00,40.9,36.1,29.98,North,3,0.0,0.0,83,0.00,OVC,,0.00,WeatherDisplay:10.37,2013-02-08 09:10:00,
2013-02-08 01:20:00,40.9,36.1,29.97,North,3,0.0,0.0,83,0.00,OVC,,0.00,WeatherDisplay:10.37,2013-02-08 09:20:00,
2013-02-08 01:30:00,40.8,36.0,29.97,North,3,0.0,1.0,83,0.00,OVC,,0.00,WeatherDisplay:10.37,2013-02-08 09:30:00,
2013-02-08 01:40:00,40.9,36.4,29.97,NNE,16,0.0,0.0,84,0.00,OVC,,0.00,WeatherDisplay:10.37,2013-02-08 09:40:00,
2013-02-08 01:50:00,40.9,36.4,29.96,NNE,17,0.0,0.0,84,0.00,OVC,,0.00,WeatherDisplay:10.37,2013-02-08 09:50:00,
2013-02-08 02:00:00,41.0,36.5,29.96,NNE,17,0.0,0.0,84,0.00,OVC,,0.00,WeatherDisplay:10.37,2013-02-08 10:00:00,
2013-02-08 02:05:00,41.0,36.5,29.96,NNE,17,0.0,0.0,84,0.00,CLR,,0.00,WeatherDisplay:10.37,2013-02-08 10:05:00,
2013-02-08 02:10:00,41.0,36.5,29.95,NNE,17,0.0,0.0,84,0.00,CLR,,0.00,WeatherDisplay:10.37,2013-02-08 10:10:00,
2013-02-08 02:20:00,41.1,36.6,29.95,NNE,17,0.0,0.0,84,0.01,RA,,0.01,WeatherDisplay:10.37,2013-02-08 10:20:00,
2013-02-08 02:30:00,41.1,36.9,29.95,NNE,17,0.0,0.0,85,0.00,CLR,,0.01,WeatherDisplay:10.37,2013-02-08 10:30:00,
2013-02-08 02:35:00,41.2,36.7,29.95,NNE,17,0.0,0.0,84,0.00,CLR,,0.01,WeatherDisplay:10.37,2013-02-08 10:35:00,
2013-02-08 02:40:00,41.2,37.1,29.94,NNE,17,0.0,0.0,85,0.00,CLR,,0.01,WeatherDisplay:10.37,2013-02-08 10:40:00,
2013-02-08 02:50:00,41.4,36.9,29.93,NNE,17,0.0,0.0,84,0.00,CLR,,0.01,WeatherDisplay:10.37,2013-02-08 10:50:00,
2013-02-08 03:00:00,41.4,37.2,29.93,NNE,14,0.0,4.0,85,0.00,CLR,,0.01,WeatherDisplay:10.37,2013-02-08 11:00:00,
2013-02-08 03:05:00,41.5,37.3,29.93,North,1,0.0,3.0,85,0.00,OVC,,0.01,WeatherDisplay:10.37,2013-02-08 11:05:00,
2013-02-08 03:10:00,41.5,37.3,29.93,North,0,0.0,0.0,85,0.00,OVC,,0.01,WeatherDisplay:10.37,2013-02-08 11:10:00,
2013-02-08 03:20:00,41.5,37.0,29.92,North,0,0.0,0.0,84,0.00,OVC,,0.01,WeatherDisplay:10.37,2013-02-08 11:20:00,
2013-02-08 03:30:00,41.6,37.1,29.92,North,0,0.0,0.0,84,0.00,OVC,,0.01,WeatherDisplay:10.37,2013-02-08 11:30:00,
2013-02-08 03:40:00,41.5,37.0,29.92,North,0,0.0,0.0,84,0.00,OVC,,0.01,WeatherDisplay:10.37,2013-02-08 11:40:00,
2013-02-08 03:50:00,41.6,37.1,29.92,North,0,0.0,0.0,84,0.00,OVC,,0.01,WeatherDisplay:10.37,2013-02-08 11:50:00,
2013-02-08 04:00:00,41.6,37.1,29.92,North,0,0.0,0.0,84,0.00,OVC,,0.01,WeatherDisplay:10.37,2013-02-08 12:00:00,
2013-02-08 04:05:00,41.6,37.1,29.92,North,0,0.0,0.0,84,0.00,OVC,,0.01,WeatherDisplay:10.37,2013-02-08 12:05:00,
2013-02-08 04:10:00,41.6,37.1,29.92,North,0,0.0,0.0,84,0.00,OVC,,0.01,WeatherDisplay:10.37,2013-02-08 12:10:00,
2013-02-08 04:20:00,41.6,37.1,29.92,North,0,0.0,0.0,84,0.00,OVC,,0.01,WeatherDisplay:10.37,2013-02-08 12:20:00,
2013-02-08 04:30:00,41.6,37.4,29.92,North,0,0.0,0.0,85,0.00,OVC,,0.01,WeatherDisplay:10.37,2013-02-08 12:30:00,
2013-02-08 04:35:00,41.6,37.1,29.92,North,0,0.0,0.0,84,0.00,OVC,,0.01,WeatherDisplay:10.37,2013-02-08 12:35:00,
2013-02-08 04:40:00,41.6,37.1,29.92,North,0,0.0,0.0,84,0.00,OVC,,0.01,WeatherDisplay:10.37,2013-02-08 12:40:00,
2013-02-08 04:45:00,41.6,37.1,29.92,North,0,0.0,0.0,84,0.00,OVC,,0.01,WeatherDisplay:10.37,2013-02-08 12:45:00,
2013-02-08 04:50:00,41.6,37.4,29.92,North,0,0.0,0.0,85,0.00,OVC,,0.01,WeatherDisplay:10.37,2013-02-08 12:50:00,
2013-02-08 05:00:00,41.6,37.1,29.92,North,0,0.0,0.0,84,0.00,OVC,,0.01,WeatherDisplay:10.37,2013-02-08 13:00:00,
2013-02-08 05:05:00,41.6,37.1,29.92,North,0,0.0,0.0,84,0.00,OVC,,0.01,WeatherDisplay:10.37,2013-02-08 13:05:00,
2013-02-08 05:10:00,41.5,37.0,29.92,North,0,0.0,0.0,84,0.00,OVC,,0.01,WeatherDisplay:10.37,2013-02-08 13:10:00,
2013-02-08 05:20:00,41.5,37.0,29.92,North,0,0.0,0.0,84,0.00,OVC,,0.01,WeatherDisplay:10.37,2013-02-08 13:20:00,
2013-02-08 05:30:00,41.5,37.0,29.92,North,0,0.0,3.0,84,0.00,OVC,,0.01,WeatherDisplay:10.37,2013-02-08 13:30:00,
2013-02-08 05:40:00,41.4,36.9,29.92,North,0,0.0,0.0,84,0.00,OVC,,0.01,WeatherDisplay:10.37,2013-02-08 13:40:00,
2013-02-08 05:50:00,41.4,36.9,29.92,North,0,0.0,0.0,84,0.00,OVC,,0.01,WeatherDisplay:10.37,2013-02-08 13:50:00,
2013-02-08 06:00:00,41.4,37.2,29.92,North,0,0.0,0.0,85,0.00,OVC,,0.01,WeatherDisplay:10.37,2013-02-08 14:00:00,
2013-02-08 06:05:00,41.4,37.2,29.92,North,0,0.0,0.0,85,0.00,-RA,,0.01,WeatherDisplay:10.37,2013-02-08 14:05:00,
2013-02-08 06:10:00,41.4,37.2,29.92,North,0,0.0,0.0,85,0.00,-RA,,0.01,WeatherDisplay:10.37,2013-02-08 14:10:00,
2013-02-08 06:20:00,41.4,37.2,29.93,North,0,0.0,0.0,85,0.00,-RA,,0.01,WeatherDisplay:10.37,2013-02-08 14:20:00,
2013-02-08 06:30:00,41.5,37.3,29.93,North,0,0.0,0.0,85,0.00,-RA,,0.01,WeatherDisplay:10.37,2013-02-08 14:30:00,
2013-02-08 06:35:00,41.5,37.3,29.93,North,0,0.0,0.0,85,0.00,-RA,,0.01,WeatherDisplay:10.37,2013-02-08 14:35:00,
2013-02-08 06:40:00,41.5,37.3,29.93,North,0,0.0,0.0,85,0.00,-RA,,0.01,WeatherDisplay:10.37,2013-02-08 14:40:00,
2013-02-08 06:50:00,41.6,37.4,29.93,North,0,0.0,0.0,85,0.00,-RA,,0.01,WeatherDisplay:10.37,2013-02-08 14:50:00,
2013-02-08 07:00:00,41.6,37.4,29.94,North,0,0.0,0.0,85,0.01,-RA,,0.02,WeatherDisplay:10.37,2013-02-08 15:00:00,
2013-02-08 07:05:00,41.6,37.4,29.94,North,0,0.0,0.0,85,0.00,-RA,,0.02,WeatherDisplay:10.37,2013-02-08 15:05:00,
2013-02-08 07:10:00,41.6,37.4,29.94,North,0,0.0,0.0,85,0.00,-RA,,0.02,WeatherDisplay:10.37,2013-02-08 15:10:00,
2013-02-08 07:20:00,41.7,37.5,29.94,North,0,0.0,0.0,85,0.00,-RA,,0.02,WeatherDisplay:10.37,2013-02-08 15:20:00,
2013-02-08 07:30:00,41.7,37.5,29.94,North,0,0.0,0.0,85,0.00,-RA,,0.02,WeatherDisplay:10.37,2013-02-08 15:30:00,
2013-02-08 07:40:00,41.7,37.5,29.94,North,1,0.0,0.0,85,0.00,-RA,,0.02,WeatherDisplay:10.37,2013-02-08 15:40:00,
2013-02-08 07:50:00,41.7,37.5,29.95,NNE,15,0.0,0.0,85,0.00,-RA,,0.02,WeatherDisplay:10.37,2013-02-08 15:50:00,
2013-02-08 08:00:00,41.7,37.5,29.95,NNE,14,0.0,0.0,85,0.00,-RA,,0.02,WeatherDisplay:10.37,2013-02-08 16:00:00,
2013-02-08 08:05:00,41.7,37.5,29.95,NNE,13,0.0,0.0,85,0.00,-RA,,0.02,WeatherDisplay:10.37,2013-02-08 16:05:00,
2013-02-08 08:10:00,41.8,37.9,29.95,NNE,13,0.0,0.0,86,0.00,-RA,,0.02,WeatherDisplay:10.37,2013-02-08 16:10:00,
2013-02-08 08:20:00,41.9,38.0,29.95,NNE,13,0.0,0.0,86,0.00,-RA,,0.02,WeatherDisplay:10.37,2013-02-08 16:20:00,
2013-02-08 08:30:00,42.0,38.1,29.96,NNE,13,0.0,0.0,86,0.00,-RA,,0.02,WeatherDisplay:10.37,2013-02-08 16:30:00,
2013-02-08 08:40:00,42.3,38.7,29.96,NNE,13,0.0,0.0,87,0.00,-RA,,0.02,WeatherDisplay:10.37,2013-02-08 16:40:00,
2013-02-08 08:50:00,42.6,39.0,29.96,NNE,13,0.0,3.0,87,0.00,-RA,,0.02,WeatherDisplay:10.37,2013-02-08 16:50:00,
2013-02-08 09:00:00,42.9,39.3,29.95,NNE,13,0.0,1.0,87,0.00,-RA,,0.02,WeatherDisplay:10.37,2013-02-08 17:00:00,
2013-02-08 09:05:00,43.0,39.4,29.96,NNE,13,1.0,3.0,87,0.00,-RA,,0.02,WeatherDisplay:10.37,2013-02-08 17:05:00,
2013-02-08 09:10:00,43.2,39.9,29.95,North,351,0.0,2.0,88,0.00,-RA,,0.02,WeatherDisplay:10.37,2013-02-08 17:10:00,
2013-02-08 09:20:00,43.5,39.9,29.96,NNW,336,0.0,1.0,87,0.00,-RA,,0.02,WeatherDisplay:10.37,2013-02-08 17:20:00,
2013-02-08 09:30:00,43.7,39.8,29.96,NNW,328,0.0,2.0,86,0.00,-RA,,0.02,WeatherDisplay:10.37,2013-02-08 17:30:00,
2013-02-08 09:35:00,43.8,40.2,29.96,NNW,327,0.0,3.0,87,0.00,-RA,,0.02,WeatherDisplay:10.37,2013-02-08 17:35:00,
2013-02-08 09:40:00,43.9,40.0,29.96,NW,317,2.0,6.0,86,0.00,-RA,,0.02,WeatherDisplay:10.37,2013-02-08 17:40:00,
2013-02-08 09:50:00,44.4,40.8,29.96,WNW,301,5.0,10.0,87,0.00,-RA,,0.02,WeatherDisplay:10.37,2013-02-08 17:50:00,
2013-02-08 10:00:00,44.8,40.9,29.97,NW,310,0.0,6.0,86,0.00,-RA,,0.02,WeatherDisplay:10.37,2013-02-08 18:00:00,
2013-02-08 10:05:00,45.1,41.2,29.97,NNW,346,1.0,5.0,86,0.00,-RA,,0.02,WeatherDisplay:10.37,2013-02-08 18:05:00,
2013-02-08 10:15:00,45.6,41.1,29.97,North,2,1.0,5.0,84,0.00,-RA,,0.02,WeatherDisplay:10.37,2013-02-08 18:15:00,
2013-02-08 10:20:00,45.8,40.9,29.97,North,352,0.0,7.0,83,0.00,-RA,,0.02,WeatherDisplay:10.37,2013-02-08 18:20:00,
2013-02-08 10:30:00,46.1,41.0,29.97,NNW,334,0.0,2.0,82,0.00,-RA,,0.02,WeatherDisplay:10.37,2013-02-08 18:30:00,
2013-02-08 10:40:00,46.6,41.0,29.97,WNW,301,2.0,7.0,81,0.00,-RA,,0.02,WeatherDisplay:10.37,2013-02-08 18:40:00,
2013-02-08 10:50:00,47.0,41.1,29.97,WNW,300,2.0,5.0,80,0.00,-RA,,0.02,WeatherDisplay:10.37,2013-02-08 18:50:00,
2013-02-08 11:00:00,47.3,41.2,29.98,NW,321,0.0,4.0,79,0.00,-RA,,0.02,WeatherDisplay:10.37,2013-02-08 19:00:00,
2013-02-08 11:05:00,47.5,41.0,29.98,North,351,1.0,9.0,78,0.00,FEW,,0.02,WeatherDisplay:10.37,2013-02-08 19:05:00,
2013-02-08 11:10:00,47.6,40.8,29.98,North,2,5.0,12.0,77,0.00,FEW,,0.02,WeatherDisplay:10.37,2013-02-08 19:10:00,
2013-02-08 11:15:00,47.8,41.3,29.98,North,358,0.0,5.0,78,0.00,FEW,,0.02,WeatherDisplay:10.37,2013-02-08 19:15:00,
2013-02-08 11:20:00,47.8,40.9,29.98,North,7,0.0,6.0,77,0.00,FEW,,0.02,WeatherDisplay:10.37,2013-02-08 19:20:00,
2013-02-08 11:30:00,47.9,40.7,29.98,NNE,24,1.0,7.0,76,0.00,FEW,,0.02,WeatherDisplay:10.37,2013-02-08 19:30:00,
2013-02-08 11:40:00,47.8,39.9,29.98,NNE,13,1.0,9.0,74,0.00,FEW,,0.02,WeatherDisplay:10.37,2013-02-08 19:40:00,
2013-02-08 11:50:00,47.8,39.9,29.98,NNE,18,2.0,5.0,74,0.00,FEW,,0.02,WeatherDisplay:10.37,2013-02-08 19:50:00,
2013-02-08 12:00:00,47.9,39.7,29.97,NNE,25,3.0,6.0,73,0.00,FEW,,0.02,WeatherDisplay:10.37,2013-02-08 20:00:00,
2013-02-08 12:05:00,48.1,40.2,29.97,NNE,32,3.0,10.0,74,0.00,OVC,,0.02,WeatherDisplay:10.37,2013-02-08 20:05:00,
2013-02-08 12:10:00,48.2,39.9,29.97,NNE,23,3.0,12.0,73,0.00,OVC,,0.02,WeatherDisplay:10.37,2013-02-08 20:10:00,
2013-02-08 12:20:00,48.4,39.7,29.97,North,11,2.0,8.0,72,0.00,OVC,,0.02,WeatherDisplay:10.37,2013-02-08 20:20:00,
2013-02-08 12:30:00,48.5,39.9,29.96,North,358,3.0,9.0,72,0.00,OVC,,0.02,WeatherDisplay:10.37,2013-02-08 20:30:00,
2013-02-08 12:40:00,48.8,39.8,29.96,NNW,329,5.0,10.0,71,0.00,OVC,,0.02,WeatherDisplay:10.37,2013-02-08 20:40:00,
2013-02-08 12:50:00,49.1,40.5,29.95,NNW,341,2.0,12.0,72,0.00,OVC,,0.02,WeatherDisplay:10.37,2013-02-08 20:50:00,
2013-02-08 12:55:00,49.3,39.9,29.95,North,4,0.0,6.0,70,0.00,OVC,,0.02,WeatherDisplay:10.37,2013-02-08 20:55:00,
2013-02-08 13:05:00,49.8,39.6,29.95,North,8,0.0,8.0,68,0.00,OVC,,0.02,WeatherDisplay:10.37,2013-02-08 21:05:00,
2013-02-08 13:10:00,49.9,39.3,29.95,NNE,19,5.0,12.0,67,0.00,OVC,,0.02,WeatherDisplay:10.37,2013-02-08 21:10:00,
2013-02-08 13:20:00,49.9,39.0,29.95,North,3,1.0,5.0,66,0.00,OVC,,0.02,WeatherDisplay:10.37,2013-02-08 21:20:00,
2013-02-08 13:25:00,49.9,39.0,29.95,NNW,337,5.0,8.0,66,0.00,OVC,,0.02,WeatherDisplay:10.37,2013-02-08 21:25:00,
2013-02-08 13:30:00,49.9,39.0,29.95,NW,320,3.0,14.0,66,0.00,OVC,,0.02,WeatherDisplay:10.37,2013-02-08 21:30:00,
2013-02-08 13:40:00,50.2,38.9,29.95,NNW,333,2.0,8.0,65,0.00,OVC,,0.02,WeatherDisplay:10.37,2013-02-08 21:40:00,
2013-02-08 13:50:00,50.3,39.0,29.95,North,3,0.0,5.0,65,0.00,OVC,,0.02,WeatherDisplay:10.37,2013-02-08 21:50:00,
2013-02-08 14:00:00,50.5,38.4,29.95,NNW,345,1.0,8.0,63,0.00,OVC,,0.02,WeatherDisplay:10.37,2013-02-08 22:00:00,
2013-02-08 14:10:00,50.8,38.6,29.95,NW,317,0.0,5.0,63,0.00,FEW,,0.02,WeatherDisplay:10.37,2013-02-08 22:10:00,
2013-02-08 14:15:00,50.9,38.7,29.95,NNW,343,0.0,5.0,63,0.00,FEW,,0.02,WeatherDisplay:10.37,2013-02-08 22:15:00,
2013-02-08 14:20:00,50.9,38.4,29.95,NNE,12,2.0,9.0,62,0.00,FEW,,0.02,WeatherDisplay:10.37,2013-02-08 22:20:00,
2013-02-08 14:30:00,51.0,38.8,29.95,North,353,3.0,9.0,63,0.00,FEW,,0.02,WeatherDisplay:10.37,2013-02-08 22:30:00,
2013-02-08 14:40:00,50.9,38.3,29.95,North,353,2.0,10.0,62,0.00,FEW,,0.02,WeatherDisplay:10.37,2013-02-08 22:40:00,
2013-02-08 14:50:00,50.9,38.0,29.95,NNE,16,1.0,8.0,61,0.00,FEW,,0.02,WeatherDisplay:10.37,2013-02-08 22:50:00,
2013-02-08 15:00:00,51.0,40.0,29.95,NNE,29,1.0,7.0,66,0.00,FEW,,0.02,WeatherDisplay:10.37,2013-02-08 23:00:00,
2013-02-08 15:05:00,51.1,40.2,29.95,NE,35,3.0,8.0,66,0.00,SCT,,0.02,WeatherDisplay:10.37,2013-02-08 23:05:00,
2013-02-08 15:10:00,51.2,39.4,29.94,North,8,1.0,6.0,64,0.00,SCT,,0.02,WeatherDisplay:10.37,2013-02-08 23:10:00,
2013-02-08 15:20:00,51.3,40.3,29.94,North,352,0.0,5.0,66,0.00,SCT,,0.02,WeatherDisplay:10.37,2013-02-08 23:20:00,
2013-02-08 15:30:00,51.5,40.1,29.95,North,350,0.0,5.0,65,0.00,SCT,,0.02,WeatherDisplay:10.37,2013-02-08 23:30:00,
2013-02-08 15:40:00,51.5,38.9,29.95,NNW,337,0.0,7.0,62,0.00,SCT,,0.02,WeatherDisplay:10.37,2013-02-08 23:40:00,
2013-02-08 15:50:00,51.6,39.4,29.95,North,9,0.0,3.0,63,0.00,SCT,,0.02,WeatherDisplay:10.37,2013-02-08 23:50:00,
2013-02-08 15:55:00,51.6,38.6,29.95,NW,325,3.0,8.0,61,0.00,SCT,,0.02,WeatherDisplay:10.37,2013-02-08 23:55:00,
2013-02-08 16:00:00,51.7,39.1,29.95,NW,311,0.0,4.0,62,0.00,SCT,,0.02,WeatherDisplay:10.37,2013-02-09 00:00:00,
2013-02-08 16:10:00,51.7,38.7,29.95,WNW,299,2.0,7.0,61,0.00,BKN,,0.02,WeatherDisplay:10.37,2013-02-09 00:10:00,
2013-02-08 16:20:00,51.7,38.7,29.95,NW,306,1.0,8.0,61,0.00,BKN,,0.02,WeatherDisplay:10.37,2013-02-09 00:20:00,
2013-02-08 16:25:00,51.7,38.3,29.94,NW,304,2.0,10.0,60,0.00,BKN,,0.02,WeatherDisplay:10.37,2013-02-09 00:25:00,
2013-02-08 16:30:00,51.6,38.6,29.94,NW,315,5.0,9.0,61,0.00,BKN,,0.02,WeatherDisplay:10.37,2013-02-09 00:30:00,
2013-02-08 16:40:00,51.5,38.1,29.94,NW,325,0.0,5.0,60,0.00,BKN,,0.02,WeatherDisplay:10.37,2013-02-09 00:40:00,
2013-02-08 16:50:00,51.3,38.7,29.94,NW,311,2.0,7.0,62,0.00,BKN,,0.02,WeatherDisplay:10.37,2013-02-09 00:50:00,
2013-02-08 17:00:00,51.0,38.4,29.95,WNW,299,5.0,13.0,62,0.00,BKN,,0.02,WeatherDisplay:10.37,2013-02-09 01:00:00,
2013-02-08 17:05:00,50.8,38.7,29.95,WNW,300,5.0,10.0,63,0.00,CLR,,0.02,WeatherDisplay:10.37,2013-02-09 01:05:00,
2013-02-08 17:10:00,50.6,38.1,29.95,NW,307,5.0,9.0,62,0.00,CLR,,0.02,WeatherDisplay:10.37,2013-02-09 01:10:00,
2013-02-08 17:15:00,50.5,38.4,29.95,NW,304,3.0,10.0,63,0.00,CLR,,0.02,WeatherDisplay:10.37,2013-02-09 01:15:00,
2013-02-08 17:20:00,50.3,38.6,29.95,WNW,301,1.0,12.0,64,0.00,CLR,,0.02,WeatherDisplay:10.37,2013-02-09 01:20:00,
2013-02-08 17:30:00,50.1,38.8,29.96,WNW,301,0.0,4.0,65,0.00,CLR,,0.02,WeatherDisplay:10.37,2013-02-09 01:30:00,
2013-02-08 17:40:00,49.7,38.4,29.96,NW,317,1.0,5.0,65,0.00,CLR,,0.02,WeatherDisplay:10.37,2013-02-09 01:40:00,
2013-02-08 17:50:00,49.3,38.5,29.96,NW,322,0.0,0.0,66,0.00,CLR,,0.02,WeatherDisplay:10.37,2013-02-09 01:50:00,
2013-02-08 18:00:00,48.9,38.0,29.97,NW,325,0.0,0.0,66,0.00,CLR,,0.02,WeatherDisplay:10.37,2013-02-09 02:00:00,
2013-02-08 18:05:00,48.7,37.4,29.97,NNW,327,0.0,0.0,65,0.00,CLR,,0.02,WeatherDisplay:10.37,2013-02-09 02:05:00,
2013-02-08 18:10:00,48.4,37.6,29.97,NNW,328,0.0,0.0,66,0.00,CLR,,0.02,WeatherDisplay:10.37,2013-02-09 02:10:00,
2013-02-08 18:20:00,47.9,37.5,29.97,NNW,346,0.0,0.0,67,0.00,CLR,,0.02,WeatherDisplay:10.37,2013-02-09 02:20:00,
2013-02-08 18:25:00,47.7,37.2,29.97,North,349,0.0,0.0,67,0.00,CLR,,0.02,WeatherDisplay:10.37,2013-02-09 02:25:00,
2013-02-08 18:30:00,47.4,37.0,29.97,North,349,0.0,0.0,67,0.00,CLR,,0.02,WeatherDisplay:10.37,2013-02-09 02:30:00,
2013-02-08 18:40:00,46.9,36.9,29.97,North,349,0.0,0.0,68,0.00,CLR,,0.02,WeatherDisplay:10.37,2013-02-09 02:40:00,
2013-02-08 18:45:00,46.6,36.6,29.97,North,349,0.0,0.0,68,0.00,CLR,,0.02,WeatherDisplay:10.37,2013-02-09 02:45:00,
2013-02-08 18:50:00,46.4,36.8,29.97,North,349,0.0,0.0,69,0.00,CLR,,0.02,WeatherDisplay:10.37,2013-02-09 02:50:00,
2013-02-08 18:55:00,46.2,37.0,29.98,North,349,0.0,0.0,70,0.00,CLR,,0.02,WeatherDisplay:10.37,2013-02-09 02:55:00,
2013-02-08 19:05:00,45.7,36.5,29.97,North,349,0.0,0.0,70,0.00,CLR,,0.02,WeatherDisplay:10.37,2013-02-09 03:05:00,
2013-02-08 19:10:00,45.5,36.6,29.97,North,349,0.0,0.0,71,0.00,CLR,,0.02,WeatherDisplay:10.37,2013-02-09 03:10:00,
2013-02-08 19:15:00,45.2,36.4,29.97,North,349,0.0,0.0,71,0.00,CLR,,0.02,WeatherDisplay:10.37,2013-02-09 03:15:00,
2013-02-08 19:20:00,44.9,36.1,29.97,North,349,0.0,0.0,71,0.00,CLR,,0.02,WeatherDisplay:10.37,2013-02-09 03:20:00,
2013-02-08 19:30:00,44.5,36.0,29.97,North,349,0.0,0.0,72,0.00,CLR,,0.02,WeatherDisplay:10.37,2013-02-09 03:30:00,
2013-02-08 19:35:00,44.3,35.8,29.97,North,349,0.0,0.0,72,0.00,CLR,,0.02,WeatherDisplay:10.37,2013-02-09 03:35:00,
2013-02-08 19:40:00,44.1,35.6,29.97,North,349,0.0,0.0,72,0.00,CLR,,0.02,WeatherDisplay:10.37,2013-02-09 03:40:00,
2013-02-08 19:50:00,43.7,35.6,29.97,North,349,0.0,0.0,73,0.00,CLR,,0.02,WeatherDisplay:10.37,2013-02-09 03:50:00,
2013-02-08 19:55:00,43.5,35.4,29.97,North,349,0.0,0.0,73,0.00,CLR,,0.02,WeatherDisplay:10.37,2013-02-09 03:55:00,
2013-02-08 20:05:00,43.2,35.1,29.97,North,349,0.0,0.0,73,0.00,CLR,,0.02,WeatherDisplay:10.37,2013-02-09 04:05:00,
2013-02-08 20:10:00,43.1,35.3,29.97,North,349,0.0,0.0,74,0.00,CLR,,0.02,WeatherDisplay:10.37,2013-02-09 04:10:00,
2013-02-08 20:20:00,42.8,35.1,29.98,North,349,0.0,0.0,74,0.00,CLR,,0.02,WeatherDisplay:10.37,2013-02-09 04:20:00,
2013-02-08 20:30:00,42.5,34.8,29.98,North,349,0.0,0.0,74,0.00,CLR,,0.02,WeatherDisplay:10.37,2013-02-09 04:30:00,
2013-02-08 20:40:00,42.2,34.8,29.98,North,349,0.0,0.0,75,0.00,CLR,,0.02,WeatherDisplay:10.37,2013-02-09 04:40:00,
2013-02-08 20:50:00,41.9,34.6,29.98,North,349,0.0,0.0,75,0.00,CLR,,0.02,WeatherDisplay:10.37,2013-02-09 04:50:00,
2013-02-08 21:00:00,41.6,34.3,29.98,North,349,0.0,0.0,75,0.00,CLR,,0.02,WeatherDisplay:10.37,2013-02-09 05:00:00,
2013-02-08 21:05:00,41.5,34.5,29.98,North,349,0.0,0.0,76,0.00,CLR,,0.02,WeatherDisplay:10.37,2013-02-09 05:05:00,
2013-02-08 21:10:00,41.4,34.4,29.98,North,349,0.0,0.0,76,0.00,CLR,,0.02,WeatherDisplay:10.37,2013-02-09 05:10:00,
2013-02-08 21:20:00,41.1,34.1,29.98,North,349,0.0,0.0,76,0.00,CLR,,0.02,WeatherDisplay:10.37,2013-02-09 05:20:00,
2013-02-08 21:30:00,40.9,34.2,29.98,North,349,0.0,0.0,77,0.00,CLR,,0.02,WeatherDisplay:10.37,2013-02-09 05:30:00,
2013-02-08 21:40:00,40.7,34.0,29.98,North,349,0.0,0.0,77,0.00,CLR,,0.02,WeatherDisplay:10.37,2013-02-09 05:40:00,
2013-02-08 21:50:00,40.3,33.7,29.98,NNW,344,0.0,4.0,77,0.00,CLR,,0.02,WeatherDisplay:10.37,2013-02-09 05:50:00,
2013-02-08 22:00:00,40.0,33.6,29.99,NNW,339,0.0,0.0,78,0.00,CLR,,0.02,WeatherDisplay:10.37,2013-02-09 06:00:00,
2013-02-08 22:05:00,39.8,33.5,29.98,NNW,339,0.0,0.0,78,0.00,CLR,,0.02,WeatherDisplay:10.37,2013-02-09 06:05:00,
2013-02-08 22:10:00,39.7,33.4,29.98,NNW,339,0.0,0.0,78,0.00,CLR,,0.02,WeatherDisplay:10.37,2013-02-09 06:10:00,
2013-02-08 22:20:00,39.4,33.4,29.99,NNW,339,0.0,3.0,79,0.00,CLR,,0.02,WeatherDisplay:10.37,2013-02-09 06:20:00,
2013-02-08 22:30:00,39.1,33.5,29.99,NNW,334,0.0,2.0,80,0.00,CLR,,0.02,WeatherDisplay:10.37,2013-02-09 06:30:00,
2013-02-08 22:40:00,38.9,33.3,29.98,NNW,333,0.0,4.0,80,0.00,CLR,,0.02,WeatherDisplay:10.37,2013-02-09 06:40:00,
2013-02-08 22:50:00,38.8,33.2,29.98,NNW,341,0.0,0.0,80,0.00,CLR,,0.02,WeatherDisplay:10.37,2013-02-09 06:50:00,
2013-02-08 23:00:00,38.6,33.0,29.98,NNW,347,0.0,3.0,80,0.00,CLR,,0.02,WeatherDisplay:10.37,2013-02-09 07:00:00,
2013-02-08 23:05:00,38.5,32.9,29.98,North,350,0.0,0.0,80,0.00,CLR,,0.02,WeatherDisplay:10.37,2013-02-09 07:05:00,
2013-02-08 23:10:00,38.4,32.8,29.98,North,351,0.0,0.0,80,0.00,CLR,,0.02,WeatherDisplay:10.37,2013-02-09 07:10:00,
2013-02-08 23:20:00,38.3,33.0,29.98,North,354,0.0,0.0,81,0.00,CLR,,0.02,WeatherDisplay:10.37,2013-02-09 07:20:00,
2013-02-08 23:30:00,38.3,32.6,29.98,North,355,0.0,0.0,80,0.00,CLR,,0.02,WeatherDisplay:10.37,2013-02-09 07:30:00,
2013-02-08 23:40:00,38.1,32.2,29.99,North,355,0.0,0.0,79,0.00,CLR,,0.02,WeatherDisplay:10.37,2013-02-09 07:40:00,
2013-02-08 23:50:00,37.9,32.0,29.99,North,355,0.0,0.0,79,0.00,CLR,,0.02,WeatherDisplay:10.37,2013-02-09 07:50:00,